sensor_id;sensor_type;location;lat;lon;timestamp;temperature;humidity
50690;DHT22;54375;48.298;11.238;2023-02-01T00:09:29;2.60;86.30
50690;DHT22;54375;48.298;11.238;2023-02-01T00:29:32;2.60;87.00
50690;DHT22;54375;48.298;11.238;2023-02-01T00:49:34;2.30;90.10
50690;DHT22;54375;48.298;11.238;2023-02-01T01:09:37;2.00;91.70
50690;DHT22;54375;48.298;11.238;2023-02-01T01:29:39;1.90;91.70
50690;DHT22;54375;48.298;11.238;2023-02-01T01:49:42;2.00;91.60
50690;DHT22;54375;48.298;11.238;2023-02-01T02:09:45;1.90;92.20
50690;DHT22;54375;48.298;11.238;2023-02-01T02:30:17;1.80;92.50
50690;DHT22;54375;48.298;11.238;2023-02-01T02:50:27;1.80;92.50
50690;DHT22;54375;48.298;11.238;2023-02-01T03:10:40;1.80;92.70
50690;DHT22;54375;48.298;11.238;2023-02-01T03:30:44;1.70;92.70
50690;DHT22;54375;48.298;11.238;2023-02-01T03:50:53;1.80;92.40
50690;DHT22;54375;48.298;11.238;2023-02-01T04:10:57;1.90;92.00
50690;DHT22;54375;48.298;11.238;2023-02-01T04:31:00;2.00;91.70
50690;DHT22;54375;48.298;11.238;2023-02-01T04:51:03;2.20;91.10
50690;DHT22;54375;48.298;11.238;2023-02-01T05:11:06;2.20;90.80
50690;DHT22;54375;48.298;11.238;2023-02-01T05:31:11;2.30;90.50
50690;DHT22;54375;48.298;11.238;2023-02-01T05:51:13;2.30;90.20
50690;DHT22;54375;48.298;11.238;2023-02-01T06:11:15;2.40;90.10
50690;DHT22;54375;48.298;11.238;2023-02-01T06:31:17;2.40;90.20
50690;DHT22;54375;48.298;11.238;2023-02-01T06:51:21;2.40;90.00
50690;DHT22;54375;48.298;11.238;2023-02-01T07:11:24;2.50;89.20
50690;DHT22;54375;48.298;11.238;2023-02-01T07:31:26;2.50;89.60
50690;DHT22;54375;48.298;11.238;2023-02-01T07:51:28;2.60;88.70
50690;DHT22;54375;48.298;11.238;2023-02-01T08:11:31;2.80;87.50
50690;DHT22;54375;48.298;11.238;2023-02-01T08:31:34;3.00;85.80
50690;DHT22;54375;48.298;11.238;2023-02-01T08:51:36;3.20;85.00
50690;DHT22;54375;48.298;11.238;2023-02-01T09:11:38;3.30;84.00
50690;DHT22;54375;48.298;11.238;2023-02-01T09:31:41;3.50;83.10
50690;DHT22;54375;48.298;11.238;2023-02-01T09:51:45;3.80;82.30
50690;DHT22;54375;48.298;11.238;2023-02-01T10:12:01;4.00;81.00
50690;DHT22;54375;48.298;11.238;2023-02-01T10:32:13;4.20;80.10
50690;DHT22;54375;48.298;11.238;2023-02-01T10:52:18;4.40;79.80
50690;DHT22;54375;48.298;11.238;2023-02-01T11:12:26;4.40;78.50
50690;DHT22;54375;48.298;11.238;2023-02-01T11:32:30;4.20;79.60
50690;DHT22;54375;48.298;11.238;2023-02-01T11:53:03;4.10;80.30
50690;DHT22;54375;48.298;11.238;2023-02-01T12:13:17;4.00;81.00
50690;DHT22;54375;48.298;11.238;2023-02-01T12:33:30;4.00;80.00
50690;DHT22;54375;48.298;11.238;2023-02-01T12:53:42;3.90;79.30
50690;DHT22;54375;48.298;11.238;2023-02-01T13:13:54;4.10;77.70
50690;DHT22;54375;48.298;11.238;2023-02-01T13:34:26;4.50;77.30
50690;DHT22;54375;48.298;11.238;2023-02-01T13:54:33;4.70;79.20
50690;DHT22;54375;48.298;11.238;2023-02-01T14:14:40;4.40;80.90
50690;DHT22;54375;48.298;11.238;2023-02-01T14:34:50;3.60;88.90
50690;DHT22;54375;48.298;11.238;2023-02-01T14:54:55;3.50;84.70
50690;DHT22;54375;48.298;11.238;2023-02-01T15:15:11;3.60;80.90
50690;DHT22;54375;48.298;11.238;2023-02-01T15:35:44;3.80;75.80
50690;DHT22;54375;48.298;11.238;2023-02-01T15:55:51;3.80;78.80
50690;DHT22;54375;48.298;11.238;2023-02-01T16:15:54;3.60;81.10
50690;DHT22;54375;48.298;11.238;2023-02-01T16:35:57;3.40;82.90
50690;DHT22;54375;48.298;11.238;2023-02-01T16:55:59;3.40;79.70
50690;DHT22;54375;48.298;11.238;2023-02-01T17:16:04;3.40;80.60
50690;DHT22;54375;48.298;11.238;2023-02-01T17:36:12;3.30;81.80
50690;DHT22;54375;48.298;11.238;2023-02-01T17:56:17;3.40;81.20
50690;DHT22;54375;48.298;11.238;2023-02-01T18:16:21;3.50;79.80
50690;DHT22;54375;48.298;11.238;2023-02-01T18:36:24;3.50;78.70
50690;DHT22;54375;48.298;11.238;2023-02-01T18:56:26;3.50;78.20
50690;DHT22;54375;48.298;11.238;2023-02-01T19:16:28;3.50;78.70
50690;DHT22;54375;48.298;11.238;2023-02-01T19:36:31;3.60;77.30
50690;DHT22;54375;48.298;11.238;2023-02-01T19:56:33;3.60;76.70
50690;DHT22;54375;48.298;11.238;2023-02-01T20:16:36;3.60;76.50
50690;DHT22;54375;48.298;11.238;2023-02-01T20:36:39;3.60;76.40
50690;DHT22;54375;48.298;11.238;2023-02-01T20:56:41;3.70;77.00
50690;DHT22;54375;48.298;11.238;2023-02-01T21:16:43;3.60;78.70
50690;DHT22;54375;48.298;11.238;2023-02-01T21:36:46;3.60;79.20
50690;DHT22;54375;48.298;11.238;2023-02-01T21:56:48;3.40;81.00
50690;DHT22;54375;48.298;11.238;2023-02-01T22:16:51;3.40;80.40
50690;DHT22;54375;48.298;11.238;2023-02-01T22:36:53;3.60;79.20
50690;DHT22;54375;48.298;11.238;2023-02-01T22:56:55;3.50;80.10
50690;DHT22;54375;48.298;11.238;2023-02-01T23:16:58;3.50;80.30
50690;DHT22;54375;48.298;11.238;2023-02-01T23:37:00;3.50;80.40
50690;DHT22;54375;48.298;11.238;2023-02-01T23:57:03;3.50;79.80
